Titus, Alabama
Current Conditions -  °F | °C
As of 5:15 AM on Saturday 20 Dec 2014 (Local Time) from K1A9 Reporting Station
Overcast Overcast  
Wind Chill:   Ceiling: 900
Heat Index:   Visibility: 10mi
Dew Point:   Wind: 3mph
Humidity: 97%   Direction: 320°NW
Pressure: 30.16"   Gusts: NA
Location:  32.71°N, 86.32°W
Report Text: K1A9 201115Z AUTO 32003KT 10SM BKN009 OVC031 07/06 A3016 RMK AO2 P0001 T00650060
Loading
Personal Weather Stations






























Interactive Weather Map New forecast layout! Learn more

10-Day Weather Forecast

Advertisements
Track Severe Weather on mobile